KMFI

Marshfield Municipal Airport

Marshfield, Wisconsin, USA
METAR KMFI 141254Z AUTO 21004KT 5SM BR CLR 20/19 A2998 RMK AO2 SLP147 T02000189 TSNO
Observed Flight Rules
Aug-14 @ 12:54 UTC (48 minutes ago) Marginal Visual Flight Rules
Wind Visibility Clouds Conditions
210° at 4 knots 5 miles
  • Clear skies
  • Mist
Temperatures Readings
Current 20°C / 68°F
Dewpoint 19°C / 66°F
Humidity 94%
Altimeter 29.98" Hg
Pressure 1014.7 hPa
Elevation 389
METAR KMFI 141254Z AUTO 21004KT 5SM BR CLR 20/19 A2998 RMK AO2 SLP147 T02000189 TSNO
Observed Flight Rules
Aug-14 @ 12:54 UTC
(48 minutes ago)
MVFR
Wind Visibility
210° at 4 knots 5 miles
Clouds
  • Clear skies
Conditions
  • Mist
Temperature Dewpoint
20°C / 68°F 19°C / 66°F
Humidity Altimeter Pressure
94% 29.98" Hg 1014.7 hPa